createdAt,value
2019-04-28T00:00:17.361Z,10.80
2019-04-28T00:02:51.686Z,13.23
2019-04-28T00:05:25.892Z,12.23
2019-04-28T00:08:10.784Z,10.07
2019-04-28T00:10:45.903Z,14.73
2019-04-28T00:13:20.897Z,13.00
2019-04-28T00:16:07.032Z,15.47
2019-04-28T00:18:51.094Z,13.17
2019-04-28T00:21:57.720Z,11.00
2019-04-28T00:24:53.568Z,11.87
2019-04-28T00:27:47.015Z,13.33
2019-04-28T00:30:31.717Z,14.87
2019-04-28T00:33:04.896Z,13.83
2019-04-28T00:35:38.416Z,12.73
2019-04-28T00:38:21.613Z,12.10
2019-04-28T00:40:56.106Z,16.60
2019-04-28T00:43:31.792Z,14.23
2019-04-28T00:46:07.470Z,13.33
2019-04-28T00:48:41.584Z,12.70
2019-04-28T00:51:14.890Z,12.23
2019-04-28T00:53:48.306Z,13.93
2019-04-28T00:56:22.277Z,12.97
2019-04-28T00:58:56.907Z,15.20
2019-04-28T01:01:51.874Z,13.33
2019-04-28T01:04:25.993Z,12.20
2019-04-28T01:07:08.654Z,13.63
2019-04-28T01:09:42.600Z,16.03
2019-04-28T01:12:17.303Z,18.20
2019-04-28T01:14:54.974Z,16.53
2019-04-28T01:17:45.841Z,16.63
2019-04-28T01:20:35.761Z,14.57
2019-04-28T01:23:10.348Z,15.40
2019-04-28T01:25:43.648Z,16.77
2019-04-28T01:28:19.518Z,15.97
2019-04-28T01:31:11.319Z,16.37
2019-04-28T01:34:04.319Z,16.07
2019-04-28T01:36:52.195Z,16.50
2019-04-28T01:39:25.748Z,14.60
2019-04-28T01:42:01.347Z,16.47
2019-04-28T01:44:35.173Z,16.00
2019-04-28T01:47:10.499Z,19.27
2019-04-28T01:49:43.691Z,16.07
2019-04-28T01:52:17.495Z,14.67
2019-04-28T01:54:51.223Z,15.13
2019-04-28T01:57:25.788Z,13.47
2019-04-28T01:59:59.831Z,17.00
2019-04-28T02:02:33.248Z,15.00
2019-04-28T02:05:09.651Z,14.10
2019-04-28T02:07:51.553Z,16.50
2019-04-28T02:10:24.743Z,15.13
2019-04-28T02:12:59.900Z,18.77
2019-04-28T02:15:33.840Z,14.00
2019-04-28T02:18:09.897Z,18.47
2019-04-28T02:20:59.854Z,15.97
2019-04-28T02:23:35.666Z,15.73
2019-04-28T02:26:19.575Z,14.10
2019-04-28T02:28:52.846Z,12.77
2019-04-28T02:31:26.419Z,14.70
2019-04-28T02:34:00.753Z,18.17
2019-04-28T02:36:50.643Z,15.37
2019-04-28T02:39:34.539Z,13.97
2019-04-28T02:42:20.612Z,14.77
2019-04-28T02:44:53.716Z,13.83
2019-04-28T02:47:27.323Z,13.40
2019-04-28T02:50:11.393Z,19.23
2019-04-28T02:53:05.423Z,17.53
2019-04-28T02:56:00.899Z,14.73
2019-04-28T02:58:34.670Z,15.50
2019-04-28T03:01:18.527Z,13.37
2019-04-28T03:03:44.237Z,13.13
2019-04-28T03:06:17.406Z,14.37
2019-04-28T03:08:51.451Z,15.07
2019-04-28T03:11:25.032Z,15.63
2019-04-28T03:14:00.979Z,14.53
2019-04-28T03:16:33.691Z,14.67
2019-04-28T03:19:07.434Z,16.60
2019-04-28T03:21:41.639Z,16.30
2019-04-28T03:24:15.559Z,14.97
2019-04-28T03:27:04.537Z,16.43
2019-04-28T03:30:02.963Z,16.83
2019-04-28T03:32:52.097Z,16.13
2019-04-28T03:35:16.132Z,14.90
2019-04-28T03:37:51.310Z,15.67
2019-04-28T03:40:24.530Z,19.90
2019-04-28T03:43:00.301Z,13.17
2019-04-28T03:45:40.956Z,14.43
2019-04-28T03:48:15.141Z,11.27
2019-04-28T03:50:51.204Z,14.93
2019-04-28T03:53:24.462Z,14.03
2019-04-28T03:55:57.642Z,14.03
2019-04-28T03:58:31.374Z,16.07
2019-04-28T04:01:05.002Z,16.70
2019-04-28T04:03:41.779Z,21.83
2019-04-28T04:06:14.854Z,16.03
2019-04-28T04:08:50.556Z,18.37
2019-04-28T04:11:41.461Z,15.00
2019-04-28T04:14:26.829Z,15.80
2019-04-28T04:17:06.857Z,13.47
2019-04-28T04:19:40.835Z,19.33
2019-04-28T04:22:31.399Z,14.77
2019-04-28T04:25:14.583Z,16.53
2019-04-28T04:28:03.770Z,15.17
2019-04-28T04:30:50.742Z,14.80
2019-04-28T04:33:24.424Z,19.13
2019-04-28T04:36:07.520Z,16.63
2019-04-28T04:38:51.362Z,15.27
2019-04-28T04:41:36.093Z,18.40
2019-04-28T04:44:21.137Z,16.60
2019-04-28T04:47:03.204Z,16.03
2019-04-28T04:49:40.314Z,15.07
2019-04-28T04:52:14.024Z,18.67
2019-04-28T04:55:02.137Z,18.57
2019-04-28T04:57:36.184Z,13.23
2019-04-28T05:00:11.997Z,16.83
2019-04-28T05:02:55.312Z,19.93
2019-04-28T05:05:35.804Z,13.43
2019-04-28T05:08:10.142Z,18.17
2019-04-28T05:10:54.291Z,16.17
2019-04-28T05:13:36.956Z,21.90
2019-04-28T05:16:14.351Z,18.23
2019-04-28T05:18:56.664Z,17.43
2019-04-28T05:21:33.132Z,17.83
2019-04-28T05:24:52.981Z,18.83
2019-04-28T05:27:25.769Z,20.10
2019-04-28T05:30:02.497Z,20.77
2019-04-28T05:32:44.644Z,21.03
2019-04-28T05:35:11.833Z,23.13
2019-04-28T05:37:45.975Z,18.17
2019-04-28T05:40:35.674Z,18.67
2019-04-28T05:43:10.655Z,20.00
2019-04-28T05:45:44.267Z,14.90
2019-04-28T05:48:40.793Z,21.73
2019-04-28T05:51:33.800Z,20.33
2019-04-28T05:54:19.845Z,19.53
2019-04-28T06:00:10.787Z,25.50
2019-04-28T06:02:54.128Z,20.13
2019-04-28T06:05:34.741Z,21.83
2019-04-28T06:08:21.710Z,21.87
2019-04-28T06:11:35.474Z,20.63
2019-04-28T06:14:19.782Z,18.80
2019-04-28T06:16:53.325Z,15.67
2019-04-28T06:19:26.802Z,20.47
2019-04-28T06:22:00.616Z,17.93
2019-04-28T06:24:35.172Z,15.80
2019-04-28T06:27:08.395Z,16.73
2019-04-28T06:29:42.355Z,19.47
2019-04-28T06:32:15.825Z,15.43
2019-04-28T06:34:49.114Z,21.13
2019-04-28T06:37:31.870Z,15.53
2019-04-28T06:40:14.211Z,18.83
2019-04-28T06:42:48.332Z,18.97
2019-04-28T06:45:31.357Z,23.00
2019-04-28T06:48:05.064Z,15.83
2019-04-28T06:50:39.447Z,18.47
2019-04-28T06:53:13.419Z,20.70
2019-04-28T06:55:56.564Z,15.93
2019-04-28T06:58:39.670Z,20.07
2019-04-28T07:01:13.214Z,16.27
2019-04-28T07:03:47.313Z,17.17
2019-04-28T07:06:20.850Z,22.17
2019-04-28T07:08:54.358Z,18.93
2019-04-28T07:11:27.796Z,21.43
2019-04-28T07:14:01.709Z,20.87
2019-04-28T07:16:36.319Z,18.33
2019-04-28T07:19:24.245Z,17.00
2019-04-28T07:22:06.508Z,21.57
2019-04-28T07:24:54.851Z,16.23
2019-04-28T07:27:28.663Z,16.23
2019-04-28T07:30:11.229Z,17.40
2019-04-28T07:32:44.937Z,19.13
2019-04-28T07:35:18.790Z,19.87
2019-04-28T07:38:14.709Z,18.63
2019-04-28T07:40:58.567Z,22.07
2019-04-28T07:43:49.999Z,20.03
2019-04-28T07:46:25.374Z,22.50
2019-04-28T07:48:59.129Z,18.10
2019-04-28T07:51:47.454Z,19.13
2019-04-28T07:54:21.114Z,19.70
2019-04-28T07:56:54.849Z,23.00
2019-04-28T07:59:28.395Z,21.80
2019-04-28T08:02:03.642Z,18.53
2019-04-28T08:04:42.187Z,22.40
2019-04-28T08:07:16.029Z,18.53
2019-04-28T08:10:00.549Z,20.60
2019-04-28T08:12:49.244Z,18.30
2019-04-28T08:15:22.840Z,23.07
2019-04-28T08:18:04.947Z,22.23
2019-04-28T08:20:54.885Z,25.27
2019-04-28T08:23:28.178Z,20.60
2019-04-28T08:26:06.658Z,29.20
2019-04-28T08:28:40.591Z,19.80
2019-04-28T08:31:15.932Z,19.70
2019-04-28T08:34:02.281Z,24.03
2019-04-28T08:36:29.211Z,22.33
2019-04-28T08:39:05.681Z,22.10
2019-04-28T08:41:39.511Z,24.03
2019-04-28T08:44:14.254Z,25.63
2019-04-28T08:46:49.847Z,24.60
2019-04-28T08:49:23.411Z,19.57
2019-04-28T08:51:57.217Z,21.53
2019-04-28T08:54:30.884Z,18.17
2019-04-28T08:57:04.189Z,26.10
2019-04-28T08:59:47.185Z,27.93
2019-04-28T09:02:22.183Z,21.80
2019-04-28T09:04:56.215Z,20.10
2019-04-28T09:07:29.748Z,23.67
2019-04-28T09:10:03.998Z,20.03
2019-04-28T09:12:46.988Z,23.60
2019-04-28T09:15:30.742Z,21.93
2019-04-28T09:18:04.760Z,22.77
2019-04-28T09:20:38.029Z,21.83
2019-04-28T09:23:12.653Z,20.00
2019-04-28T09:25:58.867Z,17.97
2019-04-28T09:28:32.955Z,24.50
2019-04-28T09:31:06.556Z,21.40
2019-04-28T09:33:41.497Z,19.73
2019-04-28T09:36:15.699Z,19.13
2019-04-28T09:38:57.621Z,23.03
2019-04-28T09:41:50.249Z,21.43
2019-04-28T09:44:25.616Z,22.77
2019-04-28T09:47:08.723Z,18.83
2019-04-28T09:49:51.159Z,21.63
2019-04-28T09:52:24.800Z,17.93
2019-04-28T09:54:58.666Z,19.87
2019-04-28T09:57:44.278Z,23.73
2019-04-28T10:00:17.954Z,19.03
2019-04-28T10:02:51.794Z,15.43
2019-04-28T10:05:34.179Z,14.17
2019-04-28T10:08:08.325Z,16.00
2019-04-28T10:10:51.514Z,12.37
2019-04-28T10:13:34.420Z,9.90
2019-04-28T10:16:18.998Z,10.60
2019-04-28T10:19:01.543Z,11.17
2019-04-28T10:21:35.508Z,10.50
2019-04-28T10:24:18.937Z,9.30
2019-04-28T10:26:53.242Z,12.47
2019-04-28T10:29:40.199Z,11.57
2019-04-28T10:32:15.008Z,11.50
2019-04-28T10:34:55.131Z,13.60
2019-04-28T10:37:35.485Z,13.40
2019-04-28T10:40:59.661Z,15.00
2019-04-28T10:43:32.511Z,12.87
2019-04-28T10:46:06.025Z,15.53
2019-04-28T10:48:40.554Z,12.50
2019-04-28T10:51:23.081Z,13.73
2019-04-28T10:53:58.642Z,9.87
2019-04-28T10:56:41.473Z,11.00
2019-04-28T10:59:24.362Z,16.20
2019-04-28T11:02:07.971Z,10.60
2019-04-28T11:05:07.832Z,14.60
2019-04-28T11:07:32.398Z,12.53
2019-04-28T11:10:17.995Z,12.47
2019-04-28T11:13:07.361Z,12.03
2019-04-28T11:15:50.511Z,11.77
2019-04-28T11:18:24.097Z,13.83
2019-04-28T11:20:57.628Z,13.73
2019-04-28T11:23:30.847Z,14.00
2019-04-28T11:26:19.925Z,13.33
2019-04-28T11:28:55.380Z,12.77
2019-04-28T11:31:29.317Z,12.97
2019-04-28T11:34:10.803Z,16.77
2019-04-28T11:36:45.094Z,14.23
2019-04-28T11:39:38.154Z,11.23
2019-04-28T11:42:12.026Z,12.33
2019-04-28T11:44:46.291Z,10.57
2019-04-28T11:47:21.609Z,10.90
2019-04-28T11:49:56.539Z,11.17
2019-04-28T11:52:30.092Z,10.43
2019-04-28T11:55:03.013Z,8.83
2019-04-28T11:57:36.518Z,11.53
2019-04-28T12:00:23.238Z,10.70
2019-04-28T12:02:56.909Z,8.30
2019-04-28T12:05:46.632Z,8.07
2019-04-28T12:08:20.178Z,7.00
2019-04-28T12:11:11.115Z,8.07
2019-04-28T12:14:09.803Z,8.00
2019-04-28T12:17:01.459Z,9.23
2019-04-28T12:19:53.980Z,11.03
2019-04-28T12:22:42.751Z,9.47
2019-04-28T12:25:25.248Z,9.83
2019-04-28T12:27:59.438Z,11.67
2019-04-28T12:30:33.488Z,9.10
2019-04-28T12:33:08.125Z,8.17
2019-04-28T12:35:52.029Z,7.43
2019-04-28T12:38:29.217Z,7.20
2019-04-28T12:41:12.074Z,6.80
2019-04-28T12:44:00.827Z,6.77
2019-04-28T12:46:45.165Z,6.10
2019-04-28T12:49:27.065Z,6.07
2019-04-28T12:52:20.593Z,6.30
2019-04-28T12:54:54.436Z,6.07
2019-04-28T12:57:28.427Z,6.13
2019-04-28T13:00:12.041Z,7.43
2019-04-28T13:03:19.684Z,5.87
2019-04-28T13:06:02.305Z,6.70
2019-04-28T13:08:29.188Z,5.53
2019-04-28T13:11:12.167Z,6.03
2019-04-28T13:13:46.965Z,5.50
2019-04-28T13:16:29.689Z,5.23
2019-04-28T13:19:03.207Z,5.33
2019-04-28T13:21:36.777Z,5.33
2019-04-28T13:24:11.076Z,5.23
2019-04-28T13:26:45.454Z,8.40
2019-04-28T13:29:18.808Z,6.33
2019-04-28T13:31:52.391Z,4.13
2019-04-28T13:34:28.473Z,5.20
2019-04-28T13:37:10.744Z,4.73
2019-04-28T13:39:57.793Z,4.70
2019-04-28T13:42:31.665Z,4.47
2019-04-28T13:45:08.607Z,4.47
2019-04-28T13:47:42.254Z,4.53
2019-04-28T13:50:35.209Z,4.30
2019-04-28T13:53:11.109Z,4.30
2019-04-28T13:56:01.064Z,3.60
2019-04-28T13:58:38.030Z,3.77
2019-04-28T14:01:43.132Z,4.87
2019-04-28T14:04:32.089Z,4.13
2019-04-28T14:07:07.131Z,3.80
2019-04-28T14:09:40.633Z,5.17
2019-04-28T14:12:13.830Z,5.00
2019-04-28T14:14:47.448Z,5.73
2019-04-28T14:17:20.885Z,2.90
2019-04-28T14:19:54.439Z,2.30
2019-04-28T14:22:29.107Z,2.77
2019-04-28T14:25:11.611Z,3.33
2019-04-28T14:27:45.225Z,4.17
2019-04-28T14:30:20.167Z,4.33
2019-04-28T14:32:53.429Z,2.73
2019-04-28T14:35:29.348Z,4.47
2019-04-28T14:38:03.583Z,3.40
2019-04-28T14:40:45.741Z,2.93
2019-04-28T14:43:19.206Z,4.17
2019-04-28T14:45:53.025Z,3.27
2019-04-28T14:48:27.084Z,2.93
2019-04-28T14:51:09.489Z,2.67
2019-04-28T14:53:42.753Z,2.83
2019-04-28T14:56:16.686Z,3.30
2019-04-28T14:58:52.337Z,3.00
2019-04-28T15:02:03.665Z,3.93
2019-04-28T15:04:55.167Z,2.83
2019-04-28T15:08:08.768Z,2.47
2019-04-28T15:11:05.468Z,2.23
2019-04-28T15:14:04.573Z,3.07
2019-04-28T15:16:38.453Z,2.30
2019-04-28T15:19:21.912Z,2.60
2019-04-28T15:21:55.812Z,2.47
2019-04-28T15:24:30.124Z,2.27
2019-04-28T15:27:13.666Z,2.57
2019-04-28T15:29:50.253Z,2.77
2019-04-28T15:32:34.287Z,3.37
2019-04-28T15:35:07.914Z,3.00
2019-04-28T15:37:41.927Z,3.03
2019-04-28T15:40:24.711Z,4.53
2019-04-28T15:43:07.185Z,4.43
2019-04-28T15:45:42.094Z,8.07
2019-04-28T15:48:16.485Z,6.27
2019-04-28T15:51:00.327Z,7.93
2019-04-28T15:53:36.375Z,6.80
2019-04-28T15:56:47.360Z,5.60
2019-04-28T15:59:24.481Z,5.90
2019-04-28T16:02:09.131Z,5.57
2019-04-28T16:04:53.901Z,6.17
2019-04-28T16:07:28.888Z,4.47
2019-04-28T16:10:03.498Z,7.13
2019-04-28T16:12:38.747Z,3.50
2019-04-28T16:15:21.266Z,3.67
2019-04-28T16:18:04.314Z,5.47
2019-04-28T16:20:49.953Z,3.83
2019-04-28T16:23:24.551Z,3.70
2019-04-28T16:25:59.239Z,3.40
2019-04-28T16:28:42.232Z,3.90
2019-04-28T16:31:16.822Z,13.80
2019-04-28T16:33:50.446Z,32.80
2019-04-28T16:36:25.024Z,15.13
2019-04-28T16:38:59.191Z,5.40
2019-04-28T16:41:40.075Z,6.17
2019-04-28T16:44:19.158Z,5.33
2019-04-28T16:46:54.687Z,4.60
2019-04-28T16:49:38.286Z,4.87
2019-04-28T16:52:12.112Z,3.87
2019-04-28T16:54:48.202Z,5.10
2019-04-28T16:57:46.448Z,4.93
2019-04-28T17:00:55.945Z,4.37
2019-04-28T17:03:31.205Z,4.63
2019-04-28T17:06:05.727Z,4.17
2019-04-28T17:08:40.604Z,4.23
2019-04-28T17:11:15.688Z,7.07
2019-04-28T17:13:58.591Z,4.70
2019-04-28T17:16:41.360Z,5.20
2019-04-28T17:19:23.701Z,4.63
2019-04-28T17:21:57.470Z,5.47
2019-04-28T17:24:31.413Z,4.57
2019-04-28T17:27:14.399Z,4.07
2019-04-28T17:29:57.276Z,4.23
2019-04-28T17:32:51.306Z,4.77
2019-04-28T17:35:26.035Z,4.53
2019-04-28T17:38:09.675Z,5.80
2019-04-28T17:40:44.993Z,5.37
2019-04-28T17:43:18.162Z,4.37
2019-04-28T17:45:51.523Z,4.83
2019-04-28T17:48:38.525Z,5.67
2019-04-28T17:51:28.662Z,3.73
2019-04-28T17:54:03.251Z,6.53
2019-04-28T17:56:49.566Z,5.97
2019-04-28T17:59:23.745Z,4.20
2019-04-28T18:02:32.338Z,4.80
2019-04-28T18:05:19.955Z,3.50
2019-04-28T18:07:59.044Z,3.30
2019-04-28T18:10:32.888Z,5.87
2019-04-28T18:13:10.579Z,3.30
2019-04-28T18:15:56.803Z,6.03
2019-04-28T18:18:53.441Z,5.77
2019-04-28T18:21:28.057Z,3.73
2019-04-28T18:24:02.728Z,4.47
2019-04-28T18:26:46.395Z,6.33
2019-04-28T18:29:20.296Z,4.90
2019-04-28T18:32:11.997Z,5.10
2019-04-28T18:35:12.708Z,4.50
2019-04-28T18:38:08.732Z,5.03
2019-04-28T18:40:59.127Z,3.50
2019-04-28T18:43:52.043Z,3.90
2019-04-28T18:46:29.573Z,4.07
2019-04-28T18:49:05.091Z,4.37
2019-04-28T18:51:40.662Z,5.10
2019-04-28T18:54:13.947Z,4.73
2019-04-28T18:56:52.076Z,3.63
2019-04-28T18:59:25.657Z,3.67
2019-04-28T19:02:13.058Z,4.83
2019-04-28T19:05:10.608Z,4.27
2019-04-28T19:08:23.373Z,5.20
2019-04-28T19:11:22.796Z,4.93
2019-04-28T19:14:00.639Z,3.30
2019-04-28T19:16:58.465Z,4.87
2019-04-28T19:19:33.079Z,5.73
2019-04-28T19:22:18.143Z,3.83
2019-04-28T19:24:53.686Z,4.47
2019-04-28T19:27:37.735Z,4.80
2019-04-28T19:30:11.952Z,5.57
2019-04-28T19:32:55.077Z,5.30
2019-04-28T19:35:37.552Z,7.43
2019-04-28T19:38:11.308Z,5.83
2019-04-28T19:40:58.831Z,6.57
2019-04-28T19:43:33.423Z,5.43
2019-04-28T19:46:09.635Z,5.57
2019-04-28T19:48:55.526Z,5.50
2019-04-28T19:51:43.385Z,7.27
2019-04-28T19:54:30.654Z,5.33
2019-04-28T19:57:37.611Z,5.60
2019-04-28T20:00:24.296Z,5.17
2019-04-28T20:02:58.011Z,6.37
2019-04-28T20:05:47.994Z,8.67
2019-04-28T20:08:22.141Z,5.80
2019-04-28T20:10:56.751Z,6.87
2019-04-28T20:13:31.576Z,6.73
2019-04-28T20:16:11.849Z,6.80
2019-04-28T20:18:48.649Z,6.83
2019-04-28T20:21:21.304Z,6.23
2019-04-28T20:23:55.181Z,5.40
2019-04-28T20:26:40.545Z,7.10
2019-04-28T20:29:15.113Z,7.97
2019-04-28T20:31:49.106Z,7.50
2019-04-28T20:34:22.721Z,7.90
2019-04-28T20:37:21.481Z,6.53
2019-04-28T20:40:01.964Z,6.27
2019-04-28T20:43:03.017Z,5.57
2019-04-28T20:45:35.808Z,6.57
2019-04-28T20:48:19.678Z,7.43
2019-04-28T20:50:52.928Z,6.50
2019-04-28T20:53:46.132Z,6.00
2019-04-28T20:56:34.939Z,8.33
2019-04-28T20:59:22.291Z,5.73
2019-04-28T21:01:56.510Z,8.47
2019-04-28T21:04:30.786Z,9.83
2019-04-28T21:07:14.271Z,8.07
2019-04-28T21:09:48.354Z,22.87
2019-04-28T21:12:24.284Z,6.83
2019-04-28T21:15:00.260Z,6.83
2019-04-28T21:17:34.700Z,9.67
2019-04-28T21:20:09.561Z,8.30
2019-04-28T21:23:00.242Z,10.40
2019-04-28T21:25:51.737Z,8.50
2019-04-28T21:28:34.733Z,7.70
2019-04-28T21:31:12.734Z,6.83
2019-04-28T21:33:55.977Z,7.07
2019-04-28T21:36:35.736Z,8.97
2019-04-28T21:39:24.295Z,6.40
2019-04-28T21:41:59.414Z,7.73
2019-04-28T21:44:48.383Z,6.20
2019-04-28T21:47:41.591Z,7.23
2019-04-28T21:50:29.069Z,6.93
2019-04-28T21:53:03.153Z,7.40
2019-04-28T21:55:41.153Z,7.03
2019-04-28T21:58:14.403Z,6.77
2019-04-28T22:01:00.188Z,7.20
2019-04-28T22:03:45.936Z,7.50
2019-04-28T22:06:21.195Z,7.87
2019-04-28T22:08:55.443Z,7.90
2019-04-28T22:11:41.726Z,8.03
2019-04-28T22:14:26.855Z,7.50
2019-04-28T22:17:00.381Z,8.03
2019-04-28T22:19:34.296Z,12.00
2019-04-28T22:22:23.254Z,8.10
2019-04-28T22:25:13.610Z,7.33
2019-04-28T22:27:47.828Z,7.80
2019-04-28T22:30:32.930Z,7.83
2019-04-28T22:33:15.853Z,7.53
2019-04-28T22:35:58.764Z,7.07
2019-04-28T22:38:41.251Z,7.33
2019-04-28T22:41:14.799Z,9.40
2019-04-28T22:43:48.723Z,8.03
2019-04-28T22:46:31.951Z,8.53
2019-04-28T22:49:06.457Z,8.50
2019-04-28T22:51:40.763Z,8.30
2019-04-28T22:54:30.317Z,8.53
2019-04-28T22:57:46.529Z,8.80
2019-04-28T23:00:50.271Z,9.13
2019-04-28T23:03:37.902Z,8.80
2019-04-28T23:06:36.467Z,7.37
2019-04-28T23:09:11.883Z,8.37
2019-04-28T23:11:54.610Z,7.87
2019-04-28T23:14:27.783Z,7.53
2019-04-28T23:17:01.288Z,9.93
2019-04-28T23:19:38.281Z,7.77
2019-04-28T23:22:26.945Z,7.60
2019-04-28T23:25:17.111Z,7.67
2019-04-28T23:27:59.661Z,7.27
2019-04-28T23:30:41.831Z,9.73
2019-04-28T23:33:33.108Z,8.73
2019-04-28T23:36:06.988Z,7.87
2019-04-28T23:38:56.226Z,7.50
2019-04-28T23:41:38.514Z,7.87
2019-04-28T23:44:12.395Z,7.77
2019-04-28T23:46:56.280Z,8.00
2019-04-28T23:49:36.470Z,8.57
2019-04-28T23:52:38.375Z,8.10
2019-04-28T23:55:27.978Z,9.43
2019-04-28T23:58:01.837Z,9.23
